TPOK1: Kansas River, State-Line, KS

                                SHEF ID:       TPOK1     MARAIS DES CYGNES R NR KS-MO ST
STATION TYPE:

STAGE STAGE(2) RIV-FLOW BAT-LOAD
ft ft cfs volt
Ccp-Rev Ccp-Rev Ccp-Rev Ccp-Rev
(America/Chicago)
07/03 00:00 7.01 6.96 1548 12.53
07/03 01:00 6.99 6.96 1535 12.50
07/03 02:00 6.98 6.93 1528 12.48
07/03 03:00 6.94 6.90 1502 12.48
07/03 04:00 6.91 6.86 1483 12.44
07/03 05:00 6.88 6.94 1463 12.42
07/03 06:00 6.86 6.83 1451 12.42
07/03 07:00 6.84 6.80 1438 12.40
07/03 08:00 6.80 6.74 1413 12.48
07/03 09:00 6.74 6.71 1375 12.80
07/03 10:00 6.71 6.68 1356 13.16
07/03 11:00 6.69 6.63 1344 13.05
07/03 12:00 6.65 6.65 1320 13.35
07/03 13:00 6.60 6.57 1289 13.27
07/03 14:00 6.53 6.52 1248 13.21
07/03 15:00 6.52 6.47 1242 13.10
07/03 16:00 6.47 6.42 1212 12.99
07/03 17:00 6.44 6.37 1195 12.93
07/03 18:00 6.39 6.34 1166 12.95
07/03 19:00 6.36 6.33 1149 12.76
07/03 20:00 6.29 6.27 1109 12.63
07/03 21:00 6.26 6.22 1092 12.59
07/03 22:00 6.22 6.17 1070 12.56
07/03 23:00 6.19 6.14 1054 12.55
Data processed at Sat 04Jul2026 04:52 GMT

NOTICE: If you are parsing this page

Please convert to using our Data API. Starting early 2026 we will be migrating to: https://water.usace.army.mil with modern pages rendered in JavaScript. When this migration completes you will no longer be able to scrape this page! CWMSDataAPI (CDA)

Timeseries IDs (TSIDs)

TSIDs used from left to right in the data table
MKSL.Stage.Inst.1Hour.0.Ccp-Rev
MKSL.Stage-Alt.Inst.1Hour.0.Ccp-Rev
MKSL.Flow.Inst.1Hour.0.Ccp-Rev
MKSL.Volt-Battery Load.Inst.1Hour.0.Ccp-Rev

                            

All information presented herein is the property of the government of the United States of America and may be revised or deleted at any time without prior notice. Dissemination of this information without the expressed written consent of the Public Affairs Office, Tulsa District U.S. Army Corps of Engineers is strictly prohibited. These data are gathered electronically and, as presented, have NOT undergone any form of quality control. These data are NOT guaranteed to be valid or correct.